createdAt,value
2019-05-17T00:01:07.463Z,21.83
2019-05-17T00:03:47.894Z,19.40
2019-05-17T00:06:19.071Z,19.30
2019-05-17T00:08:56.521Z,17.43
2019-05-17T00:11:30.085Z,22.60
2019-05-17T00:14:00.547Z,19.77
2019-05-17T00:16:37.343Z,16.77
2019-05-17T00:19:09.072Z,18.53
2019-05-17T00:21:39.520Z,17.37
2019-05-17T00:24:19.090Z,13.53
2019-05-17T00:27:00.848Z,15.37
2019-05-17T00:29:32.559Z,16.00
2019-05-17T00:32:06.449Z,14.53
2019-05-17T00:34:37.727Z,14.10
2019-05-17T00:37:17.376Z,15.43
2019-05-17T00:39:48.651Z,17.63
2019-05-17T00:42:19.125Z,20.03
2019-05-17T00:44:50.126Z,20.67
2019-05-17T00:47:21.047Z,18.93
2019-05-17T00:50:07.323Z,19.53
2019-05-17T00:52:37.381Z,14.70
2019-05-17T00:55:10.861Z,17.73
2019-05-17T00:57:41.311Z,16.00
2019-05-17T01:00:11.806Z,16.00
2019-05-17T01:02:42.578Z,19.37
2019-05-17T01:05:13.001Z,19.43
2019-05-17T01:07:43.462Z,17.43
2019-05-17T01:10:13.943Z,19.30
2019-05-17T01:12:44.429Z,21.57
2019-05-17T01:15:22.756Z,16.87
2019-05-17T01:17:53.208Z,17.37
2019-05-17T01:20:23.822Z,16.80
2019-05-17T01:22:56.695Z,17.63
2019-05-17T01:25:27.262Z,18.70
2019-05-17T01:27:58.015Z,15.87
2019-05-17T01:30:41.942Z,18.03
2019-05-17T01:33:12.401Z,15.93
2019-05-17T01:35:46.495Z,19.70
2019-05-17T01:38:17.725Z,17.70
2019-05-17T01:40:48.275Z,20.30
2019-05-17T01:43:24.455Z,19.40
2019-05-17T01:45:57.272Z,20.07
2019-05-17T01:48:27.228Z,21.80
2019-05-17T01:50:57.708Z,21.53
2019-05-17T01:53:28.162Z,20.27
2019-05-17T01:55:58.559Z,20.30
2019-05-17T01:58:42.073Z,18.17
2019-05-17T02:01:12.635Z,19.60
2019-05-17T02:03:43.149Z,22.07
2019-05-17T02:06:16.550Z,20.27
2019-05-17T02:08:47.637Z,18.57
2019-05-17T02:11:38.789Z,17.70
2019-05-17T02:14:09.635Z,22.30
2019-05-17T02:16:40.098Z,19.03
2019-05-17T02:19:10.714Z,20.53
2019-05-17T02:21:41.136Z,17.53
2019-05-17T02:24:11.556Z,19.67
2019-05-17T02:26:46.432Z,20.53
2019-05-17T02:29:17.249Z,17.27
2019-05-17T02:31:47.682Z,20.07
2019-05-17T02:34:18.066Z,17.50
2019-05-17T02:36:48.514Z,17.97
2019-05-17T02:39:24.973Z,18.13
2019-05-17T02:41:55.597Z,17.33
2019-05-17T02:44:26.004Z,17.50
2019-05-17T02:46:56.461Z,19.47
2019-05-17T02:49:27.109Z,17.80
2019-05-17T02:51:57.538Z,16.93
2019-05-17T02:54:28.008Z,17.90
2019-05-17T02:56:58.445Z,18.67
2019-05-17T02:59:28.888Z,15.93
2019-05-17T03:01:59.307Z,15.90
2019-05-17T03:04:32.520Z,15.03
2019-05-17T03:07:03.946Z,15.17
2019-05-17T03:09:34.606Z,15.00
2019-05-17T03:12:05.050Z,16.53
2019-05-17T03:14:35.427Z,17.63
2019-05-17T03:17:05.907Z,17.43
2019-05-17T03:19:36.315Z,16.87
2019-05-17T03:22:13.139Z,17.73
2019-05-17T03:24:43.990Z,17.83
2019-05-17T03:27:23.291Z,17.03
2019-05-17T03:29:54.033Z,18.03
2019-05-17T03:32:26.541Z,15.03
2019-05-17T03:35:06.057Z,15.97
2019-05-17T03:37:37.482Z,17.60
2019-05-17T03:40:21.659Z,17.80
2019-05-17T03:42:36.853Z,14.33
2019-05-17T03:45:07.364Z,16.50
2019-05-17T03:47:37.757Z,16.67
2019-05-17T03:50:13.778Z,16.43
2019-05-17T03:52:46.270Z,16.47
2019-05-17T03:55:17.632Z,16.40
2019-05-17T03:57:48.173Z,17.67
2019-05-17T04:00:22.970Z,16.70
2019-05-17T04:02:53.920Z,15.80
2019-05-17T04:05:24.761Z,17.87
2019-05-17T04:07:55.184Z,15.37
2019-05-17T04:10:25.827Z,14.40
2019-05-17T04:12:56.766Z,15.03
2019-05-17T04:15:27.944Z,15.37
2019-05-17T04:17:59.697Z,16.17
2019-05-17T04:20:32.890Z,15.63
2019-05-17T04:23:03.859Z,15.83
2019-05-17T04:25:38.255Z,15.07
2019-05-17T04:28:06.543Z,16.97
2019-05-17T04:31:02.822Z,15.27
2019-05-17T04:33:34.238Z,15.90
2019-05-17T04:36:04.733Z,13.77
2019-05-17T04:38:35.125Z,16.30
2019-05-17T04:41:05.590Z,13.87
2019-05-17T04:43:36.357Z,16.67
2019-05-17T04:46:06.802Z,14.83
2019-05-17T04:48:37.186Z,15.93
2019-05-17T04:51:07.905Z,15.97
2019-05-17T04:53:38.299Z,17.87
2019-05-17T04:56:22.700Z,17.50
2019-05-17T04:58:54.376Z,19.13
2019-05-17T05:01:25.003Z,16.30
2019-05-17T05:03:55.538Z,16.03
2019-05-17T05:06:27.369Z,17.00
2019-05-17T05:08:57.869Z,18.30
2019-05-17T05:11:50.415Z,17.67
2019-05-17T05:14:08.272Z,15.40
2019-05-17T05:16:38.740Z,17.43
2019-05-17T05:19:09.219Z,16.80
2019-05-17T05:21:42.450Z,17.00
2019-05-17T05:24:13.271Z,15.93
2019-05-17T05:26:43.867Z,16.27
2019-05-17T05:29:14.346Z,17.30
2019-05-17T05:31:44.797Z,13.87
2019-05-17T05:34:15.227Z,16.53
2019-05-17T05:36:45.696Z,15.27
2019-05-17T05:39:16.879Z,14.80
2019-05-17T05:41:47.333Z,17.67
2019-05-17T05:44:17.878Z,16.60
2019-05-17T05:46:48.330Z,17.87
2019-05-17T05:49:21.320Z,16.50
2019-05-17T05:51:55.148Z,18.73
2019-05-17T05:54:25.608Z,15.93
2019-05-17T05:56:56.296Z,16.53
2019-05-17T05:59:27.251Z,16.50
2019-05-17T06:01:58.104Z,17.70
2019-05-17T06:04:29.081Z,17.20
2019-05-17T06:07:04.515Z,17.43
2019-05-17T06:09:34.977Z,14.80
2019-05-17T06:12:05.753Z,15.10
2019-05-17T06:14:36.645Z,15.23
2019-05-17T06:17:08.190Z,14.97
2019-05-17T06:19:38.959Z,16.27
2019-05-17T06:22:09.994Z,18.67
2019-05-17T06:24:42.482Z,19.57
2019-05-17T06:27:13.044Z,17.87
2019-05-17T06:29:43.749Z,16.93
2019-05-17T06:32:14.532Z,19.33
2019-05-17T06:34:44.986Z,14.40
2019-05-17T06:37:16.708Z,14.73
2019-05-17T06:39:47.359Z,12.80
2019-05-17T06:42:18.130Z,13.27
2019-05-17T06:44:52.342Z,15.67
2019-05-17T06:47:27.028Z,13.57
2019-05-17T06:49:57.435Z,13.10
2019-05-17T06:52:27.856Z,11.83
2019-05-17T06:54:58.532Z,10.90
2019-05-17T06:57:32.555Z,12.13
2019-05-17T07:00:06.430Z,11.50
2019-05-17T07:02:36.257Z,10.63
2019-05-17T07:05:10.127Z,9.80
2019-05-17T07:07:43.197Z,9.90
2019-05-17T07:10:13.941Z,10.70
2019-05-17T07:12:55.199Z,10.83
2019-05-17T07:15:20.993Z,10.00
2019-05-17T07:17:56.746Z,11.60
2019-05-17T07:20:27.223Z,11.43
2019-05-17T07:23:00.376Z,10.20
2019-05-17T07:25:30.459Z,10.77
2019-05-17T07:28:02.106Z,11.37
2019-05-17T07:30:54.288Z,9.70
2019-05-17T07:33:30.350Z,11.30
2019-05-17T07:36:03.096Z,7.73
2019-05-17T07:38:33.523Z,6.83
2019-05-17T07:41:03.948Z,5.97
2019-05-17T07:43:35.478Z,5.77
2019-05-17T07:46:09.476Z,8.37
2019-05-17T07:48:40.501Z,6.90
2019-05-17T07:51:14.877Z,7.07
2019-05-17T07:53:45.555Z,7.13
2019-05-17T07:56:20.471Z,7.60
2019-05-17T07:58:51.096Z,7.47
2019-05-17T08:01:21.595Z,7.20
2019-05-17T08:03:52.145Z,8.60
2019-05-17T08:06:23.098Z,7.33
2019-05-17T08:09:01.156Z,8.47
2019-05-17T08:11:33.573Z,8.17
2019-05-17T08:14:04.354Z,8.17
2019-05-17T08:16:39.459Z,9.57
2019-05-17T08:19:10.070Z,8.20
2019-05-17T08:21:41.622Z,8.47
2019-05-17T08:24:12.025Z,9.97
2019-05-17T08:26:42.776Z,9.80
2019-05-17T08:29:13.163Z,8.23
2019-05-17T08:31:43.595Z,9.60
2019-05-17T08:34:17.243Z,9.90
2019-05-17T08:36:49.890Z,9.30
2019-05-17T08:39:21.967Z,9.47
2019-05-17T08:41:52.689Z,9.53
2019-05-17T08:44:23.110Z,10.57
2019-05-17T08:46:59.390Z,8.13
2019-05-17T08:49:31.135Z,7.50
2019-05-17T08:52:04.751Z,7.47
2019-05-17T08:54:42.665Z,7.60
2019-05-17T08:57:13.620Z,6.97
2019-05-17T08:59:44.274Z,9.07
2019-05-17T09:02:14.771Z,7.97
2019-05-17T09:04:46.284Z,7.50
2019-05-17T09:07:26.783Z,7.23
2019-05-17T09:09:57.236Z,7.37
2019-05-17T09:12:30.038Z,6.97
2019-05-17T09:15:00.739Z,7.40
2019-05-17T09:17:33.400Z,7.23
2019-05-17T09:20:04.177Z,6.87
2019-05-17T09:23:00.084Z,6.80
2019-05-17T09:25:55.512Z,6.43
2019-05-17T09:28:31.830Z,6.20
2019-05-17T09:31:02.762Z,7.07
2019-05-17T09:34:14.836Z,6.23
2019-05-17T09:36:50.049Z,6.90
2019-05-17T09:39:23.608Z,6.30
2019-05-17T09:41:54.298Z,6.40
2019-05-17T09:44:24.810Z,7.67
2019-05-17T09:47:05.849Z,6.30
2019-05-17T09:49:36.473Z,6.27
2019-05-17T09:52:09.464Z,5.60
2019-05-17T09:54:45.414Z,6.63
2019-05-17T09:57:14.945Z,7.30
2019-05-17T09:59:45.352Z,5.93
2019-05-17T10:02:20.914Z,5.93
2019-05-17T10:04:59.789Z,6.10
2019-05-17T10:07:30.546Z,5.60
2019-05-17T10:10:16.042Z,6.03
2019-05-17T10:12:51.270Z,7.03
2019-05-17T10:15:40.904Z,7.20
2019-05-17T10:18:11.369Z,6.83
2019-05-17T10:20:42.055Z,7.90
2019-05-17T10:23:12.505Z,7.90
2019-05-17T10:25:43.037Z,7.93
2019-05-17T10:28:29.721Z,7.33
2019-05-17T10:31:02.281Z,8.27
2019-05-17T10:33:32.804Z,7.63
2019-05-17T10:36:03.181Z,7.53
2019-05-17T10:38:33.797Z,6.70
2019-05-17T10:41:07.298Z,7.47
2019-05-17T10:43:45.310Z,7.90
2019-05-17T10:46:17.182Z,7.33
2019-05-17T10:48:50.174Z,5.90
2019-05-17T10:51:21.179Z,5.53
2019-05-17T10:53:51.662Z,4.90
2019-05-17T10:56:25.305Z,5.40
2019-05-17T10:59:05.516Z,5.50
2019-05-17T11:01:36.300Z,5.40
2019-05-17T11:04:07.099Z,5.70
2019-05-17T11:06:40.713Z,6.10
2019-05-17T11:09:20.209Z,5.47
2019-05-17T11:11:52.480Z,6.27
2019-05-17T11:14:23.157Z,5.40
2019-05-17T11:16:57.080Z,5.97
2019-05-17T11:19:29.043Z,6.93
2019-05-17T11:21:59.947Z,7.07
2019-05-17T11:24:31.572Z,6.53
2019-05-17T11:27:15.934Z,6.87
2019-05-17T11:29:52.458Z,6.50
2019-05-17T11:32:27.450Z,6.03
2019-05-17T11:35:26.620Z,5.77
2019-05-17T11:37:58.656Z,5.47
2019-05-17T11:40:43.638Z,6.20
2019-05-17T11:43:28.322Z,6.47
2019-05-17T11:45:57.674Z,5.47
2019-05-17T11:48:28.344Z,5.20
2019-05-17T11:51:00.829Z,5.10
2019-05-17T11:53:41.174Z,7.27
2019-05-17T11:56:11.773Z,5.30
2019-05-17T11:58:42.246Z,7.57
2019-05-17T12:01:14.636Z,5.97
2019-05-17T12:03:45.086Z,5.43
2019-05-17T12:06:15.838Z,5.33
2019-05-17T12:08:51.338Z,5.37
2019-05-17T12:11:21.768Z,5.57
2019-05-17T12:13:55.772Z,5.33
2019-05-17T12:16:31.910Z,5.10
2019-05-17T12:19:02.338Z,6.53
2019-05-17T12:21:37.205Z,5.87
2019-05-17T12:24:09.221Z,6.57
2019-05-17T12:26:55.807Z,6.17
2019-05-17T12:29:26.246Z,6.53
2019-05-17T12:32:06.554Z,6.40
2019-05-17T12:34:39.584Z,6.53
2019-05-17T12:37:12.975Z,7.03
2019-05-17T12:39:44.995Z,6.47
2019-05-17T12:42:15.466Z,6.60
2019-05-17T12:44:52.104Z,6.03
2019-05-17T12:47:22.662Z,6.20
2019-05-17T12:49:57.499Z,6.90
2019-05-17T12:52:27.920Z,5.47
2019-05-17T12:54:58.421Z,6.87
2019-05-17T12:57:28.810Z,5.00
2019-05-17T13:00:02.519Z,5.23
2019-05-17T13:02:42.205Z,4.50
2019-05-17T13:05:13.237Z,3.80
2019-05-17T13:07:43.900Z,3.77
2019-05-17T13:10:14.372Z,3.73
2019-05-17T13:12:46.233Z,4.03
2019-05-17T13:15:18.586Z,4.10
2019-05-17T13:18:00.088Z,5.40
2019-05-17T13:20:32.270Z,3.23
2019-05-17T13:23:04.138Z,5.37
2019-05-17T13:25:41.803Z,3.50
2019-05-17T13:28:12.554Z,6.17
2019-05-17T13:30:45.726Z,3.93
2019-05-17T13:33:18.361Z,4.17
2019-05-17T13:35:49.109Z,4.30
2019-05-17T13:38:21.080Z,3.67
2019-05-17T13:40:52.117Z,4.90
2019-05-17T13:43:22.961Z,3.20
2019-05-17T13:45:53.537Z,3.20
2019-05-17T13:48:27.102Z,4.70
2019-05-17T13:50:59.102Z,3.53
2019-05-17T13:53:29.640Z,3.67
2019-05-17T13:56:00.123Z,3.70
2019-05-17T13:58:30.844Z,4.40
2019-05-17T14:01:04.030Z,3.53
2019-05-17T14:03:34.522Z,3.47
2019-05-17T14:06:09.243Z,3.37
2019-05-17T14:08:43.111Z,3.00
2019-05-17T14:11:28.347Z,2.73
2019-05-17T14:14:03.482Z,2.90
2019-05-17T14:17:03.142Z,3.27
2019-05-17T14:19:36.207Z,3.53
2019-05-17T14:22:08.926Z,2.90
2019-05-17T14:24:42.370Z,2.87
2019-05-17T14:27:13.828Z,3.03
2019-05-17T14:29:44.234Z,2.57
2019-05-17T14:32:20.910Z,4.10
2019-05-17T14:34:51.352Z,3.03
2019-05-17T14:37:22.100Z,3.20
2019-05-17T14:39:52.636Z,3.30
2019-05-17T14:42:23.573Z,2.80
2019-05-17T14:45:00.271Z,2.60
2019-05-17T14:47:33.865Z,2.70
2019-05-17T14:50:04.915Z,2.80
2019-05-17T14:52:35.899Z,3.03
2019-05-17T14:55:08.091Z,2.93
2019-05-17T14:57:38.475Z,2.80
2019-05-17T15:00:10.040Z,2.40
2019-05-17T15:02:50.671Z,2.97
2019-05-17T15:05:34.445Z,2.30
2019-05-17T15:08:08.246Z,2.60
2019-05-17T15:10:44.215Z,4.13
2019-05-17T15:13:16.178Z,2.60
2019-05-17T15:15:59.029Z,2.57
2019-05-17T15:18:29.644Z,2.50
2019-05-17T15:21:00.150Z,2.40
2019-05-17T15:23:32.637Z,2.63
2019-05-17T15:26:03.866Z,3.60
2019-05-17T15:28:48.229Z,2.23
2019-05-17T15:31:18.735Z,2.27
2019-05-17T15:33:49.165Z,3.83
2019-05-17T15:36:19.764Z,3.20
2019-05-17T15:38:52.247Z,3.03
2019-05-17T15:41:27.094Z,2.93
2019-05-17T15:44:00.142Z,2.67
2019-05-17T15:46:32.322Z,9.93
2019-05-17T15:49:02.753Z,2.47
2019-05-17T15:51:33.147Z,9.60
2019-05-17T15:54:09.147Z,4.73
2019-05-17T15:56:40.090Z,2.83
2019-05-17T15:59:13.442Z,2.50
2019-05-17T16:04:37.113Z,3.03
2019-05-17T16:07:14.490Z,5.67
2019-05-17T16:09:45.202Z,2.70
2019-05-17T16:12:36.518Z,6.73
2019-05-17T16:15:06.826Z,2.97
2019-05-17T16:17:37.665Z,3.37
2019-05-17T16:20:16.333Z,2.47
2019-05-17T16:22:43.030Z,3.27
2019-05-17T16:25:15.242Z,3.00
2019-05-17T16:27:45.972Z,2.60
2019-05-17T16:30:21.187Z,3.43
2019-05-17T16:32:51.572Z,2.83
2019-05-17T16:35:22.021Z,3.17
2019-05-17T16:37:52.523Z,2.83
2019-05-17T16:40:25.318Z,3.10
2019-05-17T16:43:16.764Z,3.70
2019-05-17T16:45:35.338Z,3.30
2019-05-17T16:48:13.486Z,3.17
2019-05-17T16:50:47.008Z,3.10
2019-05-17T16:53:22.100Z,2.70
2019-05-17T16:55:54.459Z,3.17
2019-05-17T16:58:27.478Z,3.13
2019-05-17T17:01:08.421Z,5.40
2019-05-17T17:03:44.309Z,3.80
2019-05-17T17:06:21.987Z,3.77
2019-05-17T17:08:55.638Z,3.13
2019-05-17T17:11:39.105Z,2.97
2019-05-17T17:14:10.264Z,6.00
2019-05-17T17:16:41.055Z,2.80
2019-05-17T17:19:12.015Z,4.30
2019-05-17T17:21:44.932Z,3.20
2019-05-17T17:24:15.389Z,3.37
2019-05-17T17:26:50.187Z,5.33
2019-05-17T17:29:27.098Z,4.13
2019-05-17T17:32:00.893Z,2.50
2019-05-17T17:34:35.095Z,3.30
2019-05-17T17:37:05.517Z,3.43
2019-05-17T17:39:41.454Z,3.00
2019-05-17T17:42:12.280Z,2.50
2019-05-17T17:44:43.241Z,2.50
2019-05-17T17:47:17.279Z,2.77
2019-05-17T17:49:48.155Z,3.10
2019-05-17T17:52:20.809Z,2.87
2019-05-17T17:54:53.123Z,2.90
2019-05-17T17:57:30.897Z,4.67
2019-05-17T18:00:05.734Z,5.23
2019-05-17T18:02:47.100Z,3.47
2019-05-17T18:05:27.355Z,3.37
2019-05-17T18:07:59.402Z,3.17
2019-05-17T18:10:46.543Z,4.97
2019-05-17T18:13:44.469Z,3.57
2019-05-17T18:16:15.197Z,5.50
2019-05-17T18:19:01.363Z,4.40
2019-05-17T18:21:43.618Z,3.17
2019-05-17T18:24:42.217Z,3.27
2019-05-17T18:27:20.323Z,4.53
2019-05-17T18:29:51.348Z,3.20
2019-05-17T18:32:22.005Z,2.97
2019-05-17T18:34:53.304Z,3.77
2019-05-17T18:37:23.736Z,2.80
2019-05-17T18:39:54.163Z,3.50
2019-05-17T18:42:26.313Z,3.63
2019-05-17T18:45:05.886Z,4.33
2019-05-17T18:47:38.913Z,4.07
2019-05-17T18:50:16.921Z,4.53
2019-05-17T18:53:23.642Z,6.83
2019-05-17T18:55:57.289Z,3.90
2019-05-17T18:59:01.750Z,3.40
2019-05-17T19:02:10.516Z,3.77
2019-05-17T19:04:50.124Z,3.60
2019-05-17T19:07:31.101Z,3.20
2019-05-17T19:10:17.276Z,4.43
2019-05-17T19:12:54.102Z,3.57
2019-05-17T19:15:26.227Z,3.07
2019-05-17T19:18:03.581Z,3.30
2019-05-17T19:20:33.811Z,3.03
2019-05-17T19:23:04.600Z,4.33
2019-05-17T19:25:37.740Z,2.90
2019-05-17T19:28:08.310Z,3.30
2019-05-17T19:30:39.096Z,3.87
2019-05-17T19:33:21.592Z,2.93
2019-05-17T19:35:57.308Z,3.57
2019-05-17T19:38:28.188Z,3.33
2019-05-17T19:41:23.193Z,3.80
2019-05-17T19:43:57.248Z,4.10
2019-05-17T19:46:46.722Z,5.77
2019-05-17T19:49:20.073Z,4.10
2019-05-17T19:51:50.620Z,3.93
2019-05-17T19:54:34.501Z,3.40
2019-05-17T19:57:08.085Z,4.10
2019-05-17T19:59:39.174Z,3.87
2019-05-17T20:02:14.574Z,3.50
2019-05-17T20:04:45.296Z,3.57
2019-05-17T20:07:24.326Z,5.63
2019-05-17T20:09:59.944Z,4.97
2019-05-17T20:12:31.923Z,4.23
2019-05-17T20:15:17.326Z,3.87
2019-05-17T20:17:44.121Z,5.03
2019-05-17T20:20:15.232Z,4.07
2019-05-17T20:22:56.204Z,4.23
2019-05-17T20:25:34.534Z,5.27
2019-05-17T20:28:10.709Z,4.43
2019-05-17T20:30:44.105Z,3.67
2019-05-17T20:33:14.815Z,5.07
2019-05-17T20:35:53.140Z,4.20
2019-05-17T20:38:24.696Z,3.37
2019-05-17T20:40:56.960Z,3.87
2019-05-17T20:43:27.653Z,4.70
2019-05-17T20:45:58.151Z,3.73
2019-05-17T20:48:32.117Z,4.93
2019-05-17T20:51:08.155Z,3.43
2019-05-17T20:53:41.249Z,3.47
2019-05-17T20:56:11.902Z,3.50
2019-05-17T20:58:42.389Z,3.43
2019-05-17T21:01:16.086Z,4.30
2019-05-17T21:03:48.263Z,5.33
2019-05-17T21:06:21.295Z,3.60
2019-05-17T21:09:02.104Z,3.97
2019-05-17T21:11:34.168Z,3.47
2019-05-17T21:14:04.892Z,5.67
2019-05-17T21:16:39.654Z,6.90
2019-05-17T21:19:15.100Z,3.97
2019-05-17T21:21:49.084Z,4.03
2019-05-17T21:24:19.832Z,4.27
2019-05-17T21:26:53.170Z,4.30
2019-05-17T21:29:49.083Z,3.77
2019-05-17T21:32:37.474Z,5.77
2019-05-17T21:35:06.005Z,3.90
2019-05-17T21:37:38.070Z,4.63
2019-05-17T21:40:10.812Z,3.97
2019-05-17T21:42:46.126Z,4.37
2019-05-17T21:45:17.242Z,3.30
2019-05-17T21:47:48.189Z,4.77
2019-05-17T21:50:18.660Z,3.80
2019-05-17T21:52:52.393Z,4.53
2019-05-17T21:55:24.437Z,3.67
2019-05-17T21:57:58.313Z,4.50
2019-05-17T22:01:06.121Z,4.00
2019-05-17T22:03:39.386Z,6.10
2019-05-17T22:06:11.091Z,5.30
2019-05-17T22:08:44.094Z,5.23
2019-05-17T22:11:15.078Z,3.93
2019-05-17T22:13:47.956Z,4.00
2019-05-17T22:16:20.262Z,5.37
2019-05-17T22:18:51.350Z,3.80
2019-05-17T22:21:21.742Z,4.37
2019-05-17T22:23:54.734Z,4.20
2019-05-17T22:26:25.302Z,4.43
2019-05-17T22:29:14.561Z,4.20
2019-05-17T22:31:51.333Z,6.10
2019-05-17T22:34:24.874Z,3.87
2019-05-17T22:36:55.325Z,3.93
2019-05-17T22:39:26.099Z,4.90
2019-05-17T22:41:58.076Z,3.90
2019-05-17T22:44:28.485Z,3.97
2019-05-17T22:46:58.911Z,3.83
2019-05-17T22:49:31.266Z,3.67
2019-05-17T22:52:04.848Z,5.33
2019-05-17T22:54:35.246Z,3.80
2019-05-17T22:57:12.629Z,4.20
2019-05-17T22:59:46.103Z,3.40
2019-05-17T23:02:16.789Z,3.50
2019-05-17T23:04:47.228Z,6.27
2019-05-17T23:07:19.242Z,4.03
2019-05-17T23:09:54.230Z,3.90
2019-05-17T23:12:26.252Z,3.53
2019-05-17T23:14:59.150Z,4.03
2019-05-17T23:17:34.645Z,4.57
2019-05-17T23:20:08.293Z,4.27
2019-05-17T23:22:40.186Z,3.97
2019-05-17T23:25:13.301Z,4.70
2019-05-17T23:27:50.321Z,4.47
2019-05-17T23:30:22.964Z,3.83
2019-05-17T23:32:55.096Z,3.30
2019-05-17T23:35:25.699Z,4.27
2019-05-17T23:37:56.824Z,3.60
2019-05-17T23:40:28.563Z,4.03
2019-05-17T23:42:59.096Z,3.43
2019-05-17T23:45:29.529Z,3.63
2019-05-17T23:48:00.017Z,5.87
2019-05-17T23:50:31.564Z,4.13
2019-05-17T23:53:09.911Z,4.27
2019-05-17T23:55:40.363Z,3.50
2019-05-17T23:58:11.270Z,3.77
